Apgar, Montana
Current Conditions -  °F | °C
As of 4:55 PM on Friday 28 Nov 2014 (Local Time) from KGPI Reporting Station
Light Rain Light Rain  
Wind Chill: 41°   Ceiling: 4000
Heat Index: 46°   Visibility: 10mi
Dew Point: 38°   Wind: 10mph
Humidity: 73%   Direction: 180°S
Pressure: 29.33"   Gusts: NA
Location:  48.5033°N, 113.981°W
Report Text: KGPI 282355Z 18009KT 10SM -RA OVC040 08/03 A2933 RMK AO2 RAB40 SLP936 P0001 60001 T00780033 10089 20072 56020
Loading
Personal Weather Stations






























Interactive Weather Map New forecast layout! Learn more

10-Day Weather Forecast

Advertisements
Track Severe Weather on mobile